createdAt,value
2023-05-21T00:00:14.913Z,584.00
2023-05-21T00:01:14.953Z,584.00
2023-05-21T00:02:14.944Z,580.00
2023-05-21T00:03:15.080Z,581.00
2023-05-21T00:04:15.057Z,589.00
2023-05-21T00:05:15.215Z,588.00
2023-05-21T00:06:15.221Z,587.00
2023-05-21T00:07:15.185Z,590.00
2023-05-21T00:08:15.224Z,581.00
2023-05-21T00:09:15.268Z,584.00
2023-05-21T00:10:15.304Z,582.00
2023-05-21T00:11:15.425Z,585.00
2023-05-21T00:12:15.451Z,581.00
2023-05-21T00:13:15.465Z,583.00
2023-05-21T00:14:15.460Z,586.00
2023-05-21T00:15:15.534Z,580.00
2023-05-21T00:16:15.621Z,583.00
2023-05-21T00:17:15.580Z,587.00
2023-05-21T00:18:15.591Z,583.00
2023-05-21T00:19:15.948Z,579.00
2023-05-21T00:20:15.734Z,588.00
2023-05-21T00:21:15.725Z,586.00
2023-05-21T00:22:15.783Z,580.00
2023-05-21T00:23:15.797Z,588.00
2023-05-21T00:24:15.887Z,586.00
2023-05-21T00:25:15.918Z,583.00
2023-05-21T00:26:15.920Z,588.00
2023-05-21T00:27:15.958Z,586.00
2023-05-21T00:28:16.042Z,588.00
2023-05-21T00:29:16.057Z,583.00
2023-05-21T00:30:16.082Z,584.00
2023-05-21T00:31:16.181Z,584.00
2023-05-21T00:32:16.197Z,581.00
2023-05-21T00:33:16.203Z,588.00
2023-05-21T00:34:16.273Z,579.00
2023-05-21T00:35:16.323Z,581.00
2023-05-21T00:36:16.361Z,580.00
2023-05-21T00:37:16.399Z,583.00
2023-05-21T00:38:16.439Z,582.00
2023-05-21T00:39:16.503Z,581.00
2023-05-21T00:40:16.505Z,580.00
2023-05-21T00:41:16.577Z,580.00
2023-05-21T00:42:16.593Z,582.00
2023-05-21T00:43:16.647Z,580.00
2023-05-21T00:44:16.689Z,586.00
2023-05-21T00:45:16.756Z,581.00
2023-05-21T00:46:16.904Z,579.00
2023-05-21T00:47:16.810Z,582.00
2023-05-21T00:48:16.880Z,585.00
2023-05-21T00:49:16.911Z,580.00
2023-05-21T00:50:16.954Z,580.00
2023-05-21T00:51:16.981Z,584.00
2023-05-21T00:52:17.031Z,576.00
2023-05-21T00:53:17.062Z,583.00
2023-05-21T00:54:17.126Z,578.00
2023-05-21T00:55:17.182Z,575.00
2023-05-21T00:56:17.246Z,577.00
2023-05-21T00:57:17.254Z,578.00
2023-05-21T00:58:17.288Z,578.00
2023-05-21T00:59:17.313Z,584.00
2023-05-21T01:00:17.383Z,584.00
2023-05-21T01:01:17.431Z,582.00
2023-05-21T01:02:17.470Z,579.00
2023-05-21T01:03:17.597Z,581.00
2023-05-21T01:04:17.575Z,581.00
2023-05-21T01:05:17.630Z,581.00
2023-05-21T01:06:18.129Z,580.00
2023-05-21T01:07:17.685Z,577.00
2023-05-21T01:08:17.746Z,580.00
2023-05-21T01:09:17.783Z,582.00
2023-05-21T01:10:17.782Z,577.00
2023-05-21T01:11:17.871Z,582.00
2023-05-21T01:12:17.930Z,583.00
2023-05-21T01:13:17.935Z,581.00
2023-05-21T01:14:17.973Z,582.00
2023-05-21T01:15:18.027Z,577.00
2023-05-21T01:16:18.145Z,578.00
2023-05-21T01:17:18.101Z,580.00
2023-05-21T01:18:18.321Z,580.00
2023-05-21T01:19:18.352Z,581.00
2023-05-21T01:20:18.343Z,579.00
2023-05-21T01:21:18.334Z,578.00
2023-05-21T01:22:18.352Z,581.00
2023-05-21T01:23:18.385Z,579.00
2023-05-21T01:24:18.434Z,577.00
2023-05-21T01:25:18.495Z,574.00
2023-05-21T01:26:18.571Z,578.00
2023-05-21T01:27:18.561Z,580.00
2023-05-21T01:28:18.621Z,577.00
2023-05-21T01:29:18.645Z,580.00
2023-05-21T01:30:18.746Z,577.00
2023-05-21T01:31:18.777Z,579.00
2023-05-21T01:32:18.813Z,577.00
2023-05-21T01:33:19.055Z,579.00
2023-05-21T01:34:19.294Z,578.00
2023-05-21T01:35:19.064Z,579.00
2023-05-21T01:36:19.016Z,577.00
2023-05-21T01:37:19.094Z,574.00
2023-05-21T01:38:19.096Z,579.00
2023-05-21T01:39:19.150Z,577.00
2023-05-21T01:40:19.217Z,572.00
2023-05-21T01:41:19.336Z,581.00
2023-05-21T01:42:19.351Z,580.00
2023-05-21T01:43:19.436Z,577.00
2023-05-21T01:44:19.443Z,581.00
2023-05-21T01:45:19.504Z,577.00
2023-05-21T01:46:19.612Z,579.00
2023-05-21T01:47:19.571Z,579.00
2023-05-21T01:48:19.640Z,576.00
2023-05-21T01:49:19.679Z,580.00
2023-05-21T01:50:19.763Z,577.00
2023-05-21T01:51:19.760Z,579.00
2023-05-21T01:52:19.805Z,581.00
2023-05-21T01:53:19.879Z,578.00
2023-05-21T01:54:19.918Z,577.00
2023-05-21T01:55:19.949Z,577.00
2023-05-21T01:56:19.999Z,579.00
2023-05-21T01:57:20.079Z,577.00
2023-05-21T01:58:20.117Z,576.00
2023-05-21T01:59:20.154Z,576.00
2023-05-21T02:00:20.213Z,578.00
2023-05-21T02:01:20.294Z,576.00
2023-05-21T02:02:20.368Z,577.00
2023-05-21T02:03:20.464Z,577.00
2023-05-21T02:04:20.422Z,578.00
2023-05-21T02:05:20.472Z,578.00
2023-05-21T02:06:20.529Z,574.00
2023-05-21T02:07:20.587Z,579.00
2023-05-21T02:08:20.625Z,572.00
2023-05-21T02:09:20.664Z,575.00
2023-05-21T02:10:20.743Z,574.00
2023-05-21T02:11:20.738Z,577.00
2023-05-21T02:12:20.788Z,580.00
2023-05-21T02:13:21.906Z,578.00
2023-05-21T02:14:20.905Z,578.00
2023-05-21T02:15:20.957Z,574.00
2023-05-21T02:16:21.083Z,577.00
2023-05-21T02:17:21.061Z,585.00
2023-05-21T02:18:21.118Z,579.00
2023-05-21T02:19:21.184Z,575.00
2023-05-21T02:20:21.206Z,576.00
2023-05-21T02:21:21.317Z,579.00
2023-05-21T02:22:21.320Z,575.00
2023-05-21T02:23:21.359Z,579.00
2023-05-21T02:24:21.439Z,577.00
2023-05-21T02:25:21.477Z,574.00
2023-05-21T02:26:21.547Z,577.00
2023-05-21T02:27:21.575Z,575.00
2023-05-21T02:28:21.611Z,579.00
2023-05-21T02:29:21.691Z,578.00
2023-05-21T02:30:21.705Z,575.00
2023-05-21T02:31:21.793Z,575.00
2023-05-21T02:32:21.872Z,576.00
2023-05-21T02:33:21.908Z,577.00
2023-05-21T02:34:22.053Z,576.00
2023-05-21T02:35:22.015Z,574.00
2023-05-21T02:36:22.056Z,570.00
2023-05-21T02:37:22.127Z,577.00
2023-05-21T02:38:22.176Z,583.00
2023-05-21T02:39:22.261Z,571.00
2023-05-21T02:40:22.281Z,574.00
2023-05-21T02:41:22.399Z,571.00
2023-05-21T02:42:22.418Z,576.00
2023-05-21T02:43:22.440Z,576.00
2023-05-21T02:44:22.491Z,575.00
2023-05-21T02:45:22.590Z,571.00
2023-05-21T02:46:22.642Z,576.00
2023-05-21T02:47:22.708Z,577.00
2023-05-21T02:48:22.724Z,575.00
2023-05-21T02:49:22.763Z,573.00
2023-05-21T02:50:22.862Z,570.00
2023-05-21T02:51:22.907Z,575.00
2023-05-21T02:52:22.920Z,569.00
2023-05-21T02:53:23.054Z,574.00
2023-05-21T02:54:23.103Z,576.00
2023-05-21T02:55:23.164Z,568.00
2023-05-21T02:56:23.173Z,570.00
2023-05-21T02:57:23.245Z,570.00
2023-05-21T02:58:23.312Z,573.00
2023-05-21T02:59:23.358Z,575.00
2023-05-21T03:00:23.451Z,573.00
2023-05-21T03:01:23.549Z,578.00
2023-05-21T03:02:23.809Z,571.00
2023-05-21T03:03:23.772Z,568.00
2023-05-21T03:04:23.681Z,573.00
2023-05-21T03:05:23.747Z,572.00
2023-05-21T03:06:23.779Z,575.00
2023-05-21T03:07:23.818Z,575.00
2023-05-21T03:08:23.924Z,579.00
2023-05-21T03:09:23.973Z,573.00
2023-05-21T03:10:24.030Z,572.00
2023-05-21T03:11:24.123Z,579.00
2023-05-21T03:12:24.163Z,574.00
2023-05-21T03:13:24.276Z,578.00
2023-05-21T03:14:24.315Z,576.00
2023-05-21T03:15:24.456Z,579.00
2023-05-21T03:16:24.471Z,570.00
2023-05-21T03:17:24.500Z,577.00
2023-05-21T03:18:24.555Z,576.00
2023-05-21T03:19:24.681Z,569.00
2023-05-21T03:20:24.659Z,571.00
2023-05-21T03:21:24.699Z,577.00
2023-05-21T03:22:24.789Z,574.00
2023-05-21T03:23:24.827Z,574.00
2023-05-21T03:24:24.859Z,572.00
2023-05-21T03:25:24.929Z,574.00
2023-05-21T03:26:25.008Z,574.00
2023-05-21T03:27:25.119Z,575.00
2023-05-21T03:28:25.119Z,572.00
2023-05-21T03:29:25.167Z,570.00
2023-05-21T03:30:25.242Z,576.00
2023-05-21T03:31:25.340Z,568.00
2023-05-21T03:32:25.466Z,577.00
2023-05-21T03:33:25.421Z,573.00
2023-05-21T03:34:25.477Z,571.00
2023-05-21T03:35:25.512Z,570.00
2023-05-21T03:36:25.598Z,572.00
2023-05-21T03:37:25.645Z,572.00
2023-05-21T03:38:25.698Z,575.00
2023-05-21T03:39:25.816Z,571.00
2023-05-21T03:40:25.858Z,566.00
2023-05-21T03:41:25.929Z,571.00
2023-05-21T03:42:26.007Z,575.00
2023-05-21T03:43:26.006Z,570.00
2023-05-21T03:44:26.094Z,578.00
2023-05-21T03:45:26.159Z,576.00
2023-05-21T03:46:26.217Z,581.00
2023-05-21T03:47:26.298Z,572.00
2023-05-21T03:48:26.322Z,568.00
2023-05-21T03:49:26.328Z,576.00
2023-05-21T03:50:26.398Z,577.00
2023-05-21T03:51:26.479Z,576.00
2023-05-21T03:52:26.512Z,569.00
2023-05-21T03:53:26.594Z,573.00
2023-05-21T03:54:26.669Z,577.00
2023-05-21T03:55:26.708Z,575.00
2023-05-21T03:56:26.804Z,570.00
2023-05-21T03:57:26.865Z,578.00
2023-05-21T03:58:26.918Z,570.00
2023-05-21T03:59:26.980Z,569.00
2023-05-21T04:00:27.014Z,580.00
2023-05-21T04:01:27.098Z,573.00
2023-05-21T04:02:27.287Z,574.00
2023-05-21T04:03:27.319Z,572.00
2023-05-21T04:04:27.308Z,575.00
2023-05-21T04:05:27.319Z,580.00
2023-05-21T04:06:27.360Z,575.00
2023-05-21T04:07:27.457Z,571.00
2023-05-21T04:08:27.492Z,571.00
2023-05-21T04:09:27.557Z,576.00
2023-05-21T04:10:27.655Z,572.00
2023-05-21T04:11:27.691Z,572.00
2023-05-21T04:12:27.775Z,571.00
2023-05-21T04:13:27.774Z,570.00
2023-05-21T04:14:27.896Z,571.00
2023-05-21T04:15:27.949Z,571.00
2023-05-21T04:16:28.197Z,572.00
2023-05-21T04:17:28.096Z,574.00
2023-05-21T04:18:28.084Z,572.00
2023-05-21T04:19:28.244Z,570.00
2023-05-21T04:20:28.260Z,571.00
2023-05-21T04:21:28.258Z,573.00
2023-05-21T04:22:28.317Z,571.00
2023-05-21T04:23:28.364Z,571.00
2023-05-21T04:24:28.421Z,575.00
2023-05-21T04:25:28.485Z,574.00
2023-05-21T04:26:28.524Z,568.00
2023-05-21T04:27:28.598Z,569.00
2023-05-21T04:28:28.666Z,567.00
2023-05-21T04:29:28.717Z,571.00
2023-05-21T04:30:28.784Z,574.00
2023-05-21T04:31:28.896Z,574.00
2023-05-21T04:32:28.930Z,576.00
2023-05-21T04:33:28.949Z,573.00
2023-05-21T04:34:28.978Z,571.00
2023-05-21T04:35:29.015Z,577.00
2023-05-21T04:36:29.116Z,573.00
2023-05-21T04:37:29.183Z,574.00
2023-05-21T04:38:29.233Z,574.00
2023-05-21T04:39:29.246Z,572.00
2023-05-21T04:40:29.300Z,572.00
2023-05-21T04:41:29.349Z,570.00
2023-05-21T04:42:29.396Z,574.00
2023-05-21T04:43:29.532Z,573.00
2023-05-21T04:44:30.224Z,572.00
2023-05-21T04:45:29.593Z,571.00
2023-05-21T04:46:29.700Z,576.00
2023-05-21T04:47:29.673Z,571.00
2023-05-21T04:48:29.704Z,570.00
2023-05-21T04:49:29.757Z,576.00
2023-05-21T04:50:29.813Z,570.00
2023-05-21T04:51:29.877Z,572.00
2023-05-21T04:52:29.917Z,573.00
2023-05-21T04:53:30.015Z,571.00
2023-05-21T04:54:30.015Z,572.00
2023-05-21T04:55:30.078Z,573.00
2023-05-21T04:56:30.126Z,574.00
2023-05-21T04:57:30.182Z,566.00
2023-05-21T04:58:30.270Z,573.00
2023-05-21T04:59:30.286Z,575.00
2023-05-21T05:00:30.441Z,574.00
2023-05-21T05:01:30.376Z,575.00
2023-05-21T05:02:30.394Z,573.00
2023-05-21T05:03:30.544Z,577.00
2023-05-21T05:04:30.543Z,569.00
2023-05-21T05:05:30.548Z,575.00
2023-05-21T05:06:30.587Z,571.00
2023-05-21T05:07:30.664Z,570.00
2023-05-21T05:08:30.683Z,565.00
2023-05-21T05:09:30.715Z,571.00
2023-05-21T05:10:30.767Z,571.00
2023-05-21T05:11:30.782Z,569.00
2023-05-21T05:12:30.841Z,568.00
2023-05-21T05:13:30.899Z,570.00
2023-05-21T05:14:30.931Z,573.00
2023-05-21T05:15:30.955Z,573.00
2023-05-21T05:16:31.070Z,567.00
2023-05-21T05:17:31.064Z,569.00
2023-05-21T05:18:31.143Z,567.00
2023-05-21T05:19:31.216Z,568.00
2023-05-21T05:20:31.218Z,574.00
2023-05-21T05:21:31.266Z,569.00
2023-05-21T05:22:31.281Z,560.00
2023-05-21T05:23:31.295Z,568.00
2023-05-21T05:24:31.336Z,566.00
2023-05-21T05:25:31.340Z,568.00
2023-05-21T05:26:31.407Z,570.00
2023-05-21T05:27:31.422Z,569.00
2023-05-21T05:28:31.416Z,568.00
2023-05-21T05:29:31.469Z,567.00
2023-05-21T05:30:31.497Z,569.00
2023-05-21T05:31:31.658Z,566.00
2023-05-21T05:32:31.645Z,567.00
2023-05-21T05:33:31.640Z,568.00
2023-05-21T05:34:31.647Z,567.00
2023-05-21T05:35:31.644Z,566.00
2023-05-21T05:36:31.681Z,572.00
2023-05-21T05:37:31.745Z,566.00
2023-05-21T05:38:32.609Z,566.00
2023-05-21T05:39:31.804Z,563.00
2023-05-21T05:40:31.826Z,565.00
2023-05-21T05:41:31.812Z,563.00
2023-05-21T05:42:31.877Z,564.00
2023-05-21T05:43:31.870Z,565.00
2023-05-21T05:44:31.920Z,564.00
2023-05-21T05:45:31.924Z,566.00
2023-05-21T05:46:31.982Z,565.00
2023-05-21T05:47:31.981Z,562.00
2023-05-21T05:48:31.960Z,562.00
2023-05-21T05:49:32.011Z,562.00
2023-05-21T05:50:32.025Z,564.00
2023-05-21T05:51:32.094Z,568.00
2023-05-21T05:52:32.097Z,564.00
2023-05-21T05:53:32.101Z,557.00
2023-05-21T05:54:32.083Z,560.00
2023-05-21T05:55:32.096Z,562.00
2023-05-21T05:56:32.129Z,561.00
2023-05-21T05:57:32.119Z,562.00
2023-05-21T05:58:32.181Z,561.00
2023-05-21T05:59:32.191Z,558.00
2023-05-21T06:00:32.185Z,556.00
2023-05-21T06:01:32.219Z,558.00
2023-05-21T06:02:32.310Z,558.00
2023-05-21T06:03:32.300Z,552.00
2023-05-21T06:04:32.209Z,558.00
2023-05-21T06:05:32.237Z,553.00
2023-05-21T06:06:32.190Z,556.00
2023-05-21T06:07:32.197Z,552.00
2023-05-21T06:08:32.203Z,550.00
2023-05-21T06:09:32.185Z,555.00
2023-05-21T06:10:32.235Z,554.00
2023-05-21T06:11:32.732Z,551.00
2023-05-21T06:12:32.320Z,553.00
2023-05-21T06:13:32.377Z,551.00
2023-05-21T06:14:32.417Z,551.00
2023-05-21T06:15:32.512Z,550.00
2023-05-21T06:16:32.652Z,550.00
2023-05-21T06:17:32.669Z,550.00
2023-05-21T06:18:32.649Z,548.00
2023-05-21T06:19:32.800Z,546.00
2023-05-21T06:20:32.727Z,546.00
2023-05-21T06:21:32.815Z,549.00
2023-05-21T06:22:32.956Z,545.00
2023-05-21T06:23:33.189Z,546.00
2023-05-21T06:24:32.997Z,545.00
2023-05-21T06:25:32.994Z,543.00
2023-05-21T06:26:33.050Z,543.00
2023-05-21T06:27:33.084Z,545.00
2023-05-21T06:28:33.121Z,539.00
2023-05-21T06:29:33.184Z,540.00
2023-05-21T06:30:33.208Z,538.00
2023-05-21T06:31:33.470Z,545.00
2023-05-21T06:32:33.437Z,543.00
2023-05-21T06:33:33.420Z,542.00
2023-05-21T06:34:33.348Z,542.00
2023-05-21T06:35:33.381Z,542.00
2023-05-21T06:36:33.397Z,538.00
2023-05-21T06:37:33.470Z,542.00
2023-05-21T06:38:33.560Z,539.00
2023-05-21T06:39:33.469Z,543.00
2023-05-21T06:40:33.517Z,542.00
2023-05-21T06:41:33.596Z,545.00
2023-05-21T06:42:33.605Z,539.00
2023-05-21T06:43:33.615Z,542.00
2023-05-21T06:44:33.670Z,543.00
2023-05-21T06:45:33.718Z,543.00
2023-05-21T06:46:33.821Z,537.00
2023-05-21T06:47:33.764Z,543.00
2023-05-21T06:48:33.775Z,539.00
2023-05-21T06:49:33.778Z,543.00
2023-05-21T06:50:33.810Z,541.00
2023-05-21T06:51:34.245Z,542.00
2023-05-21T06:52:33.888Z,541.00
2023-05-21T06:53:33.873Z,541.00
2023-05-21T06:54:33.920Z,542.00
2023-05-21T06:55:34.011Z,540.00
2023-05-21T06:56:33.945Z,537.00
2023-05-21T06:57:33.936Z,542.00
2023-05-21T06:58:33.957Z,540.00
2023-05-21T06:59:34.036Z,538.00
2023-05-21T07:00:34.031Z,541.00
2023-05-21T07:01:34.035Z,544.00
2023-05-21T07:02:34.149Z,540.00
2023-05-21T07:03:34.063Z,541.00
2023-05-21T07:04:34.100Z,542.00
2023-05-21T07:05:34.185Z,542.00
2023-05-21T07:06:34.171Z,543.00
2023-05-21T07:07:34.127Z,538.00
2023-05-21T07:08:34.152Z,537.00
2023-05-21T07:09:34.154Z,540.00
2023-05-21T07:10:34.143Z,540.00
2023-05-21T07:11:34.220Z,540.00
2023-05-21T07:12:34.212Z,539.00
2023-05-21T07:13:34.213Z,543.00
2023-05-21T07:14:34.271Z,544.00
2023-05-21T07:15:34.430Z,545.00
2023-05-21T07:16:34.303Z,543.00
2023-05-21T07:17:34.314Z,546.00
2023-05-21T07:18:34.261Z,540.00
2023-05-21T07:19:34.341Z,544.00
2023-05-21T07:20:34.271Z,543.00
2023-05-21T07:21:34.278Z,544.00
2023-05-21T07:22:34.289Z,543.00
2023-05-21T07:23:34.292Z,541.00
2023-05-21T07:24:34.333Z,543.00
2023-05-21T07:25:34.447Z,543.00
2023-05-21T07:26:34.293Z,547.00
2023-05-21T07:27:34.348Z,548.00
2023-05-21T07:28:34.308Z,539.00
2023-05-21T07:29:34.299Z,545.00
2023-05-21T07:30:34.340Z,546.00
2023-05-21T07:31:34.483Z,544.00
2023-05-21T07:32:34.344Z,544.00
2023-05-21T07:33:34.308Z,544.00
2023-05-21T07:34:34.295Z,548.00
2023-05-21T07:35:34.496Z,546.00
2023-05-21T07:36:34.332Z,544.00
2023-05-21T07:37:34.373Z,547.00
2023-05-21T07:38:34.391Z,546.00
2023-05-21T07:39:34.394Z,543.00
2023-05-21T07:40:34.394Z,547.00
2023-05-21T07:41:34.399Z,544.00
2023-05-21T07:42:34.589Z,544.00
2023-05-21T07:43:34.449Z,541.00
2023-05-21T07:44:34.525Z,544.00
2023-05-21T07:45:34.700Z,547.00
2023-05-21T07:46:34.573Z,545.00
2023-05-21T07:47:34.625Z,543.00
2023-05-21T07:48:35.634Z,547.00
2023-05-21T07:49:34.677Z,548.00
2023-05-21T07:50:34.703Z,547.00
2023-05-21T07:51:34.680Z,548.00
2023-05-21T07:52:34.787Z,549.00
2023-05-21T07:53:34.846Z,547.00
2023-05-21T07:54:34.816Z,550.00
2023-05-21T07:55:35.011Z,551.00
2023-05-21T07:56:34.875Z,551.00
2023-05-21T07:57:34.948Z,552.00
2023-05-21T07:58:35.331Z,550.00
2023-05-21T07:59:34.997Z,546.00
2023-05-21T08:00:35.060Z,551.00
2023-05-21T08:01:35.081Z,550.00
2023-05-21T08:02:35.268Z,556.00
2023-05-21T08:03:35.257Z,553.00
2023-05-21T08:04:35.316Z,551.00
2023-05-21T08:05:35.701Z,554.00
2023-05-21T08:06:35.439Z,551.00
2023-05-21T08:07:35.528Z,555.00
2023-05-21T08:08:35.506Z,555.00
2023-05-21T08:09:35.674Z,555.00
2023-05-21T08:10:35.635Z,554.00
2023-05-21T08:11:35.753Z,557.00
2023-05-21T08:12:35.748Z,554.00
2023-05-21T08:13:35.891Z,557.00
2023-05-21T08:14:35.908Z,556.00
2023-05-21T08:15:36.203Z,556.00
2023-05-21T08:16:36.053Z,556.00
2023-05-21T08:17:36.092Z,557.00
2023-05-21T08:18:36.131Z,560.00
2023-05-21T08:19:36.243Z,559.00
2023-05-21T08:20:36.289Z,555.00
2023-05-21T08:21:36.306Z,556.00
2023-05-21T08:22:36.369Z,555.00
2023-05-21T08:23:36.453Z,558.00
2023-05-21T08:24:36.488Z,555.00
2023-05-21T08:25:37.010Z,556.00
2023-05-21T08:26:36.611Z,555.00
2023-05-21T08:27:36.669Z,558.00
2023-05-21T08:28:36.725Z,558.00
2023-05-21T08:29:36.788Z,557.00
2023-05-21T08:30:36.802Z,561.00
2023-05-21T08:31:36.940Z,556.00
2023-05-21T08:32:36.904Z,556.00
2023-05-21T08:33:36.958Z,557.00
2023-05-21T08:34:37.010Z,558.00
2023-05-21T08:35:37.258Z,559.00
2023-05-21T08:36:37.143Z,555.00
2023-05-21T08:37:37.142Z,557.00
2023-05-21T08:38:37.181Z,561.00
2023-05-21T08:39:37.332Z,558.00
2023-05-21T08:40:37.270Z,559.00
2023-05-21T08:41:37.298Z,564.00
2023-05-21T08:42:37.829Z,559.00
2023-05-21T08:43:37.392Z,561.00
2023-05-21T08:44:37.437Z,562.00
2023-05-21T08:45:38.012Z,563.00
2023-05-21T08:46:37.620Z,562.00
2023-05-21T08:47:37.564Z,563.00
2023-05-21T08:48:37.586Z,561.00
2023-05-21T08:49:37.660Z,563.00
2023-05-21T08:50:37.650Z,562.00
2023-05-21T08:51:37.699Z,563.00
2023-05-21T08:52:37.688Z,566.00
2023-05-21T08:53:37.780Z,565.00
2023-05-21T08:54:37.785Z,565.00
2023-05-21T08:55:38.074Z,566.00
2023-05-21T08:56:37.826Z,563.00
2023-05-21T08:57:37.894Z,566.00
2023-05-21T08:58:37.921Z,567.00
2023-05-21T08:59:37.925Z,566.00
2023-05-21T09:00:37.949Z,568.00
2023-05-21T09:01:38.078Z,569.00
2023-05-21T09:02:38.037Z,563.00
2023-05-21T09:03:38.090Z,573.00
2023-05-21T09:04:38.148Z,565.00
2023-05-21T09:05:38.224Z,569.00
2023-05-21T09:06:38.111Z,570.00
2023-05-21T09:07:38.238Z,571.00
2023-05-21T09:08:38.222Z,570.00
2023-05-21T09:09:38.225Z,572.00
2023-05-21T09:10:38.295Z,565.00
2023-05-21T09:11:38.238Z,571.00
2023-05-21T09:12:38.305Z,566.00
2023-05-21T09:13:39.092Z,572.00
2023-05-21T09:14:38.364Z,572.00
2023-05-21T09:15:38.663Z,572.00
2023-05-21T09:16:38.488Z,574.00
2023-05-21T09:17:38.465Z,574.00
2023-05-21T09:18:38.473Z,573.00
2023-05-21T09:19:38.590Z,573.00
2023-05-21T09:20:38.501Z,571.00
2023-05-21T09:21:38.545Z,574.00
2023-05-21T09:22:38.523Z,576.00
2023-05-21T09:23:38.585Z,573.00
2023-05-21T09:24:38.650Z,575.00
2023-05-21T09:25:38.955Z,572.00
2023-05-21T09:26:38.632Z,572.00
2023-05-21T09:27:38.639Z,574.00
2023-05-21T09:28:38.680Z,575.00
2023-05-21T09:29:38.862Z,573.00
2023-05-21T09:30:38.880Z,571.00
2023-05-21T09:31:38.720Z,575.00
2023-05-21T09:32:38.768Z,578.00
2023-05-21T09:33:38.762Z,576.00
2023-05-21T09:34:38.766Z,578.00
2023-05-21T09:35:38.801Z,572.00
2023-05-21T09:36:38.859Z,575.00
2023-05-21T09:37:38.864Z,575.00
2023-05-21T09:38:38.820Z,574.00
2023-05-21T09:39:38.835Z,575.00
2023-05-21T09:40:38.957Z,575.00
2023-05-21T09:41:38.904Z,580.00
2023-05-21T09:42:39.335Z,579.00
2023-05-21T09:43:38.937Z,577.00
2023-05-21T09:44:38.880Z,579.00
2023-05-21T09:45:38.959Z,579.00
2023-05-21T09:46:39.005Z,579.00
2023-05-21T09:47:38.970Z,581.00
2023-05-21T09:48:38.989Z,582.00
2023-05-21T09:49:38.981Z,577.00
2023-05-21T09:50:39.156Z,580.00
2023-05-21T09:51:38.967Z,582.00
2023-05-21T09:52:40.780Z,582.00
2023-05-21T09:53:38.959Z,585.00
2023-05-21T09:54:39.008Z,586.00
2023-05-21T09:55:38.948Z,584.00
2023-05-21T09:56:38.959Z,586.00
2023-05-21T09:57:38.959Z,583.00
2023-05-21T09:58:38.980Z,583.00
2023-05-21T09:59:38.971Z,584.00
2023-05-21T10:00:39.156Z,587.00
2023-05-21T10:01:38.944Z,585.00
2023-05-21T10:02:38.958Z,586.00
2023-05-21T10:03:38.918Z,589.00
2023-05-21T10:04:39.010Z,585.00
2023-05-21T10:05:38.901Z,586.00
2023-05-21T10:06:38.988Z,587.00
2023-05-21T10:07:38.935Z,588.00
2023-05-21T10:08:38.883Z,591.00
2023-05-21T10:09:38.844Z,587.00
2023-05-21T10:10:38.990Z,585.00
2023-05-21T10:11:38.904Z,587.00
2023-05-21T10:12:38.852Z,587.00
2023-05-21T10:13:38.858Z,589.00
2023-05-21T10:14:38.834Z,589.00
2023-05-21T10:15:38.922Z,592.00
2023-05-21T10:16:38.861Z,591.00
2023-05-21T10:17:38.869Z,592.00
2023-05-21T10:18:38.805Z,591.00
2023-05-21T10:19:38.886Z,590.00
2023-05-21T10:20:39.071Z,592.00
2023-05-21T10:21:38.820Z,593.00
2023-05-21T10:22:38.783Z,591.00
2023-05-21T10:23:38.802Z,593.00
2023-05-21T10:24:38.783Z,592.00
2023-05-21T10:25:38.807Z,592.00
2023-05-21T10:26:38.783Z,593.00
2023-05-21T10:27:38.745Z,594.00
2023-05-21T10:28:38.722Z,594.00
2023-05-21T10:29:38.752Z,597.00
2023-05-21T10:30:38.972Z,593.00
2023-05-21T10:31:38.759Z,597.00
2023-05-21T10:32:38.790Z,596.00
2023-05-21T10:33:38.810Z,594.00
2023-05-21T10:34:38.739Z,597.00
2023-05-21T10:35:38.860Z,595.00
2023-05-21T10:36:38.686Z,596.00
2023-05-21T10:37:38.685Z,596.00
2023-05-21T10:38:38.696Z,597.00
2023-05-21T10:39:38.702Z,597.00
2023-05-21T10:40:38.888Z,599.00
2023-05-21T10:41:38.633Z,598.00
2023-05-21T10:42:38.669Z,597.00
2023-05-21T10:43:38.669Z,598.00
2023-05-21T10:44:38.660Z,597.00
2023-05-21T10:45:38.698Z,596.00
2023-05-21T10:46:38.613Z,597.00
2023-05-21T10:47:38.678Z,597.00
2023-05-21T10:48:38.618Z,598.00
2023-05-21T10:49:38.629Z,598.00
2023-05-21T10:50:38.859Z,599.00
2023-05-21T10:51:38.566Z,601.00
2023-05-21T10:52:38.576Z,598.00
2023-05-21T10:53:38.573Z,600.00
2023-05-21T10:54:38.588Z,598.00
2023-05-21T10:55:38.557Z,601.00
2023-05-21T10:56:38.546Z,600.00
2023-05-21T10:57:38.577Z,604.00
2023-05-21T10:58:38.550Z,601.00
2023-05-21T10:59:38.526Z,602.00
2023-05-21T11:00:38.649Z,601.00
2023-05-21T11:01:38.540Z,599.00
2023-05-21T11:02:38.596Z,602.00
2023-05-21T11:03:38.600Z,602.00
2023-05-21T11:04:38.499Z,601.00
2023-05-21T11:05:38.482Z,603.00
2023-05-21T11:06:38.505Z,601.00
2023-05-21T11:07:38.471Z,601.00
2023-05-21T11:08:38.485Z,604.00
2023-05-21T11:09:38.451Z,602.00
2023-05-21T11:10:38.826Z,604.00
2023-05-21T11:11:38.476Z,602.00
2023-05-21T11:12:38.426Z,601.00
2023-05-21T11:13:38.438Z,603.00
2023-05-21T11:14:38.431Z,603.00
2023-05-21T11:15:38.418Z,600.00
2023-05-21T11:16:38.451Z,603.00
2023-05-21T11:17:38.524Z,604.00
2023-05-21T11:18:38.444Z,604.00
2023-05-21T11:19:38.594Z,604.00
2023-05-21T11:20:38.579Z,605.00
2023-05-21T11:21:38.412Z,605.00
2023-05-21T11:22:38.400Z,605.00
2023-05-21T11:23:38.392Z,605.00
2023-05-21T11:24:38.344Z,604.00
2023-05-21T11:25:38.353Z,603.00
2023-05-21T11:26:38.429Z,606.00
2023-05-21T11:27:38.365Z,606.00
2023-05-21T11:28:38.341Z,606.00
2023-05-21T11:29:38.325Z,605.00
2023-05-21T11:30:40.260Z,605.00
2023-05-21T11:31:38.928Z,612.00
2023-05-21T11:32:38.572Z,608.00
2023-05-21T11:33:38.550Z,608.00
2023-05-21T11:34:38.574Z,610.00
2023-05-21T11:35:38.537Z,608.00
2023-05-21T11:36:38.541Z,610.00
2023-05-21T11:37:38.586Z,607.00
2023-05-21T11:38:38.550Z,607.00
2023-05-21T11:39:38.558Z,609.00
2023-05-21T11:40:38.711Z,610.00
2023-05-21T11:41:38.541Z,608.00
2023-05-21T11:42:38.564Z,610.00
2023-05-21T11:43:38.506Z,608.00
2023-05-21T11:44:38.520Z,607.00
2023-05-21T11:45:38.559Z,609.00
2023-05-21T11:46:38.568Z,610.00
2023-05-21T11:47:38.614Z,611.00
2023-05-21T11:48:38.539Z,609.00
2023-05-21T11:49:38.510Z,612.00
2023-05-21T11:50:38.817Z,612.00
2023-05-21T11:51:38.563Z,611.00
2023-05-21T11:52:38.536Z,611.00
2023-05-21T11:53:38.554Z,611.00
2023-05-21T11:54:38.535Z,615.00
2023-05-21T11:55:38.666Z,613.00
2023-05-21T11:56:38.535Z,612.00
2023-05-21T11:57:38.537Z,614.00
2023-05-21T11:58:38.562Z,615.00
2023-05-21T11:59:38.555Z,613.00
2023-05-21T12:00:38.724Z,614.00
2023-05-21T12:01:38.550Z,615.00
2023-05-21T12:02:39.329Z,614.00
2023-05-21T12:03:38.582Z,612.00
2023-05-21T12:04:38.559Z,612.00
2023-05-21T12:05:38.558Z,612.00
2023-05-21T12:06:38.557Z,614.00
2023-05-21T12:07:38.518Z,612.00
2023-05-21T12:08:38.543Z,615.00
2023-05-21T12:09:38.534Z,613.00
2023-05-21T12:10:38.705Z,614.00
2023-05-21T12:11:38.533Z,615.00
2023-05-21T12:12:50.558Z,614.00
2023-05-21T12:13:39.563Z,614.00
2023-05-21T12:14:38.534Z,614.00
2023-05-21T12:15:38.522Z,614.00
2023-05-21T12:16:38.577Z,615.00
2023-05-21T12:17:38.600Z,617.00
2023-05-21T12:18:38.518Z,617.00
2023-05-21T12:19:38.504Z,616.00
2023-05-21T12:20:38.646Z,613.00
2023-05-21T12:21:38.465Z,615.00
2023-05-21T12:22:38.460Z,616.00
2023-05-21T12:23:38.482Z,615.00
2023-05-21T12:24:38.493Z,613.00
2023-05-21T12:25:38.464Z,617.00
2023-05-21T12:26:38.413Z,616.00
2023-05-21T12:27:38.458Z,616.00
2023-05-21T12:28:38.477Z,615.00